sensor_id;sensor_type;location;lat;lon;timestamp;pressure;altitude;pressure_sealevel;temperature
43292;BMP280;28754;47.700;7.924;2023-07-29T00:01:52;91206.34;;;19.13
43292;BMP280;28754;47.700;7.924;2023-07-29T00:04:40;91204.22;;;19.15
43292;BMP280;28754;47.700;7.924;2023-07-29T00:07:26;91200.09;;;19.14
43292;BMP280;28754;47.700;7.924;2023-07-29T00:10:13;91208.50;;;19.11
43292;BMP280;28754;47.700;7.924;2023-07-29T00:13:00;91200.72;;;19.11
43292;BMP280;28754;47.700;7.924;2023-07-29T00:15:46;91197.38;;;19.10
43292;BMP280;28754;47.700;7.924;2023-07-29T00:18:33;91190.78;;;19.13
43292;BMP280;28754;47.700;7.924;2023-07-29T00:21:20;91195.22;;;19.12
43292;BMP280;28754;47.700;7.924;2023-07-29T00:24:07;91192.94;;;19.11
43292;BMP280;28754;47.700;7.924;2023-07-29T00:26:53;91192.94;;;19.11
43292;BMP280;28754;47.700;7.924;2023-07-29T00:29:41;91183.94;;;19.08
43292;BMP280;28754;47.700;7.924;2023-07-29T00:32:30;91178.00;;;19.08
43292;BMP280;28754;47.700;7.924;2023-07-29T00:35:17;91185.78;;;19.08
43292;BMP280;28754;47.700;7.924;2023-07-29T00:38:04;91180.59;;;19.08
43292;BMP280;28754;47.700;7.924;2023-07-29T00:40:50;91172.00;;;19.07
43292;BMP280;28754;47.700;7.924;2023-07-29T00:43:37;91183.47;;;19.06
43292;BMP280;28754;47.700;7.924;2023-07-29T00:46:24;91170.31;;;19.11
43292;BMP280;28754;47.700;7.924;2023-07-29T00:49:11;91173.66;;;19.12
43292;BMP280;28754;47.700;7.924;2023-07-29T00:51:58;91170.47;;;19.15
43292;BMP280;28754;47.700;7.924;2023-07-29T00:54:45;91174.91;;;19.14
43292;BMP280;28754;47.700;7.924;2023-07-29T00:57:33;91161.16;;;19.14
43292;BMP280;28754;47.700;7.924;2023-07-29T01:00:21;91164.06;;;19.12
43292;BMP280;28754;47.700;7.924;2023-07-29T01:03:08;91155.69;;;19.07
43292;BMP280;28754;47.700;7.924;2023-07-29T01:06:17;91165.47;;;19.10
43292;BMP280;28754;47.700;7.924;2023-07-29T01:15:55;91156.44;;;19.07
43292;BMP280;28754;47.700;7.924;2023-07-29T01:18:48;91150.81;;;19.05
43292;BMP280;28754;47.700;7.924;2023-07-29T01:21:37;91151.25;;;19.07
43292;BMP280;28754;47.700;7.924;2023-07-29T01:24:24;91155.84;;;19.10
43292;BMP280;28754;47.700;7.924;2023-07-29T01:27:11;91159.19;;;19.11
43292;BMP280;28754;47.700;7.924;2023-07-29T01:29:58;91165.13;;;19.11
43292;BMP280;28754;47.700;7.924;2023-07-29T01:32:59;91161.16;;;19.14
43292;BMP280;28754;47.700;7.924;2023-07-29T01:36:02;91153.81;;;19.16
43292;BMP280;28754;47.700;7.924;2023-07-29T01:38:51;91162.06;;;19.18
43292;BMP280;28754;47.700;7.924;2023-07-29T01:41:39;91156.84;;;19.18
43292;BMP280;28754;47.700;7.924;2023-07-29T01:44:28;91164.50;;;19.23
43292;BMP280;28754;47.700;7.924;2023-07-29T01:47:17;91163.41;;;19.24
43292;BMP280;28754;47.700;7.924;2023-07-29T01:50:04;91163.84;;;19.26
43292;BMP280;28754;47.700;7.924;2023-07-29T01:52:51;91154.97;;;19.26
43292;BMP280;28754;47.700;7.924;2023-07-29T01:55:38;91158.03;;;19.28
43292;BMP280;28754;47.700;7.924;2023-07-29T01:58:25;91154.03;;;19.31
43292;BMP280;28754;47.700;7.924;2023-07-29T02:01:15;91162.28;;;19.33
43292;BMP280;28754;47.700;7.924;2023-07-29T02:04:05;91152.22;;;19.31
43292;BMP280;28754;47.700;7.924;2023-07-29T02:06:52;91149.63;;;19.31
43292;BMP280;28754;47.700;7.924;2023-07-29T02:09:38;91151.59;;;19.34
43292;BMP280;28754;47.700;7.924;2023-07-29T02:12:25;91149.75;;;19.35
43292;BMP280;28754;47.700;7.924;2023-07-29T02:15:12;91144.25;;;19.36
43292;BMP280;28754;47.700;7.924;2023-07-29T02:17:58;91140.91;;;19.36
43292;BMP280;28754;47.700;7.924;2023-07-29T02:20:45;91143.50;;;19.36
43292;BMP280;28754;47.700;7.924;2023-07-29T02:23:36;91149.88;;;19.38
43292;BMP280;28754;47.700;7.924;2023-07-29T02:26:23;91146.53;;;19.38
43292;BMP280;28754;47.700;7.924;2023-07-29T02:29:09;91147.28;;;19.38
43292;BMP280;28754;47.700;7.924;2023-07-29T02:31:56;91157.03;;;19.41
43292;BMP280;28754;47.700;7.924;2023-07-29T02:34:43;91144.50;;;19.43
43292;BMP280;28754;47.700;7.924;2023-07-29T02:37:30;91148.63;;;19.44
43292;BMP280;28754;47.700;7.924;2023-07-29T02:40:16;91146.03;;;19.44
43292;BMP280;28754;47.700;7.924;2023-07-29T02:43:03;91133.66;;;19.41
43292;BMP280;28754;47.700;7.924;2023-07-29T02:45:50;91149.69;;;19.43
43292;BMP280;28754;47.700;7.924;2023-07-29T02:48:36;91146.34;;;19.43
43292;BMP280;28754;47.700;7.924;2023-07-29T02:51:23;91145.16;;;19.40
43292;BMP280;28754;47.700;7.924;2023-07-29T02:54:10;91135.38;;;19.37
43292;BMP280;28754;47.700;7.924;2023-07-29T02:56:57;91147.94;;;19.35
43292;BMP280;28754;47.700;7.924;2023-07-29T02:59:44;91151.59;;;19.34
43292;BMP280;28754;47.700;7.924;2023-07-29T03:02:31;91153.72;;;19.32
43292;BMP280;28754;47.700;7.924;2023-07-29T03:05:18;91163.38;;;19.32
43292;BMP280;28754;47.700;7.924;2023-07-29T03:08:05;91154.38;;;19.29
43292;BMP280;28754;47.700;7.924;2023-07-29T03:10:52;91151.78;;;19.29
43292;BMP280;28754;47.700;7.924;2023-07-29T03:13:39;91150.22;;;19.28
43292;BMP280;28754;47.700;7.924;2023-07-29T03:16:26;91152.06;;;19.28
43292;BMP280;28754;47.700;7.924;2023-07-29T03:19:15;91153.16;;;19.27
43292;BMP280;28754;47.700;7.924;2023-07-29T03:22:02;91154.97;;;19.26
43292;BMP280;28754;47.700;7.924;2023-07-29T03:24:49;91149.03;;;19.26
43292;BMP280;28754;47.700;7.924;2023-07-29T03:27:36;91141.56;;;19.25
43292;BMP280;28754;47.700;7.924;2023-07-29T03:30:23;91138.53;;;19.23
43292;BMP280;28754;47.700;7.924;2023-07-29T03:33:11;91140.03;;;19.24
43292;BMP280;28754;47.700;7.924;2023-07-29T03:35:58;91140.03;;;19.24
43292;BMP280;28754;47.700;7.924;2023-07-29T03:38:45;91138.53;;;19.23
43292;BMP280;28754;47.700;7.924;2023-07-29T03:41:32;91137.44;;;19.24
43292;BMP280;28754;47.700;7.924;2023-07-29T03:44:18;91129.97;;;19.22
43292;BMP280;28754;47.700;7.924;2023-07-29T03:47:06;91136.25;;;19.21
43292;BMP280;28754;47.700;7.924;2023-07-29T03:49:53;91132.56;;;19.22
43292;BMP280;28754;47.700;7.924;2023-07-29T03:52:43;91125.22;;;19.24
43292;BMP280;28754;47.700;7.924;2023-07-29T03:55:30;91137.13;;;19.25
43292;BMP280;28754;47.700;7.924;2023-07-29T03:58:16;91146.75;;;19.25
43292;BMP280;28754;47.700;7.924;2023-07-29T04:01:06;91140.78;;;19.24
43292;BMP280;28754;47.700;7.924;2023-07-29T04:03:56;91142.63;;;19.24
43292;BMP280;28754;47.700;7.924;2023-07-29T04:06:43;91136.69;;;19.23
43292;BMP280;28754;47.700;7.924;2023-07-29T04:09:30;91127.06;;;19.24
43292;BMP280;28754;47.700;7.924;2023-07-29T04:12:17;91127.22;;;19.27
43292;BMP280;28754;47.700;7.924;2023-07-29T04:15:06;91136.50;;;19.28
43292;BMP280;28754;47.700;7.924;2023-07-29T04:17:53;91137.25;;;19.28
43292;BMP280;28754;47.700;7.924;2023-07-29T04:20:39;91128.41;;;19.29
43292;BMP280;28754;47.700;7.924;2023-07-29T04:23:26;91132.50;;;19.30
43292;BMP280;28754;47.700;7.924;2023-07-29T04:26:13;91129.91;;;19.30
43292;BMP280;28754;47.700;7.924;2023-07-29T04:29:00;91128.41;;;19.29
43292;BMP280;28754;47.700;7.924;2023-07-29T04:31:46;91138.16;;;19.32
43292;BMP280;28754;47.700;7.924;2023-07-29T04:34:34;91146.41;;;19.34
43292;BMP280;28754;47.700;7.924;2023-07-29T04:37:21;91150.06;;;19.33
43292;BMP280;28754;47.700;7.924;2023-07-29T04:40:08;91147.28;;;19.38
43292;BMP280;28754;47.700;7.924;2023-07-29T04:42:55;91150.34;;;19.40
43292;BMP280;28754;47.700;7.924;2023-07-29T04:45:44;91148.03;;;19.39
43292;BMP280;28754;47.700;7.924;2023-07-29T04:48:32;91155.53;;;19.40
43292;BMP280;28754;47.700;7.924;2023-07-29T04:51:18;91155.53;;;19.40
43292;BMP280;28754;47.700;7.924;2023-07-29T04:54:05;91165.28;;;19.43
43292;BMP280;28754;47.700;7.924;2023-07-29T04:56:52;91154.88;;;19.43
43292;BMP280;28754;47.700;7.924;2023-07-29T04:59:38;91167.56;;;19.45
43292;BMP280;28754;47.700;7.924;2023-07-29T05:02:25;91157.94;;;19.45
43292;BMP280;28754;47.700;7.924;2023-07-29T05:05:12;91169.09;;;19.46
43292;BMP280;28754;47.700;7.924;2023-07-29T05:07:58;91157.63;;;19.47
43292;BMP280;28754;47.700;7.924;2023-07-29T05:10:49;91166.81;;;19.44
43292;BMP280;28754;47.700;7.924;2023-07-29T05:13:36;91164.66;;;19.46
43292;BMP280;28754;47.700;7.924;2023-07-29T05:16:24;91176.56;;;19.47
43292;BMP280;28754;47.700;7.924;2023-07-29T05:19:11;91181.13;;;19.50
43292;BMP280;28754;47.700;7.924;2023-07-29T05:21:58;91189.34;;;19.52
43292;BMP280;28754;47.700;7.924;2023-07-29T05:24:45;91186.00;;;19.52
43292;BMP280;28754;47.700;7.924;2023-07-29T05:27:31;91178.34;;;19.55
43292;BMP280;28754;47.700;7.924;2023-07-29T05:30:18;91175.13;;;19.58
43292;BMP280;28754;47.700;7.924;2023-07-29T05:33:05;91171.56;;;19.62
43292;BMP280;28754;47.700;7.924;2023-07-29T05:35:52;91166.97;;;19.68
43292;BMP280;28754;47.700;7.924;2023-07-29T05:38:38;91175.78;;;19.75
43292;BMP280;28754;47.700;7.924;2023-07-29T05:41:25;91170.56;;;19.84
43292;BMP280;28754;47.700;7.924;2023-07-29T05:44:14;91165.94;;;19.89
43292;BMP280;28754;47.700;7.924;2023-07-29T05:47:01;91172.78;;;19.94
43292;BMP280;28754;47.700;7.924;2023-07-29T05:49:48;91168.66;;;19.93
43292;BMP280;28754;47.700;7.924;2023-07-29T05:52:35;91180.91;;;19.92
43292;BMP280;28754;47.700;7.924;2023-07-29T05:55:22;91182.59;;;19.88
43292;BMP280;28754;47.700;7.924;2023-07-29T05:58:08;91185.38;;;19.83
43292;BMP280;28754;47.700;7.924;2023-07-29T06:00:56;91186.03;;;19.80
43292;BMP280;28754;47.700;7.924;2023-07-29T06:03:42;91185.25;;;19.80
43292;BMP280;28754;47.700;7.924;2023-07-29T06:06:29;91179.31;;;19.79
43292;BMP280;28754;47.700;7.924;2023-07-29T06:09:16;91188.28;;;19.82
43292;BMP280;28754;47.700;7.924;2023-07-29T06:12:03;91185.63;;;19.90
43292;BMP280;28754;47.700;7.924;2023-07-29T06:14:50;91184.25;;;19.93
43292;BMP280;28754;47.700;7.924;2023-07-29T06:17:37;91186.53;;;19.94
43292;BMP280;28754;47.700;7.924;2023-07-29T06:20:24;91191.44;;;19.96
43292;BMP280;28754;47.700;7.924;2023-07-29T06:23:11;91189.13;;;19.94
43292;BMP280;28754;47.700;7.924;2023-07-29T06:25:58;91194.78;;;19.96
43292;BMP280;28754;47.700;7.924;2023-07-29T06:28:45;91188.50;;;19.97
43292;BMP280;28754;47.700;7.924;2023-07-29T06:31:32;91190.59;;;20.03
43292;BMP280;28754;47.700;7.924;2023-07-29T06:34:19;91184.56;;;20.11
43292;BMP280;28754;47.700;7.924;2023-07-29T06:37:06;91183.84;;;20.23
43292;BMP280;28754;47.700;7.924;2023-07-29T06:39:52;91176.44;;;20.33
43292;BMP280;28754;47.700;7.924;2023-07-29T06:42:39;91182.22;;;20.38
43292;BMP280;28754;47.700;7.924;2023-07-29T06:45:26;91173.44;;;20.43
43292;BMP280;28754;47.700;7.924;2023-07-29T06:48:13;91178.00;;;20.46
43292;BMP280;28754;47.700;7.924;2023-07-29T06:50:59;91180.59;;;20.46
43292;BMP280;28754;47.700;7.924;2023-07-29T06:53:47;91181.69;;;20.45
43292;BMP280;28754;47.700;7.924;2023-07-29T06:56:33;91184.75;;;20.47
43292;BMP280;28754;47.700;7.924;2023-07-29T06:59:20;91182.38;;;20.54
43292;BMP280;28754;47.700;7.924;2023-07-29T07:02:07;91190.44;;;20.61
43292;BMP280;28754;47.700;7.924;2023-07-29T07:04:54;91192.22;;;20.68
43292;BMP280;28754;47.700;7.924;2023-07-29T07:07:41;91202.72;;;20.72
43292;BMP280;28754;47.700;7.924;2023-07-29T07:10:27;91185.06;;;20.77
43292;BMP280;28754;47.700;7.924;2023-07-29T07:13:14;91197.88;;;20.82
43292;BMP280;28754;47.700;7.924;2023-07-29T07:16:01;91191.59;;;20.83
43292;BMP280;28754;47.700;7.924;2023-07-29T07:18:47;91189.88;;;20.87
43292;BMP280;28754;47.700;7.924;2023-07-29T07:21:34;91186.13;;;20.76
43292;BMP280;28754;47.700;7.924;2023-07-29T07:24:21;91189.38;;;20.62
43292;BMP280;28754;47.700;7.924;2023-07-29T07:27:08;91187.13;;;20.52
43292;BMP280;28754;47.700;7.924;2023-07-29T07:29:55;91187.78;;;20.49
43292;BMP280;28754;47.700;7.924;2023-07-29T07:32:41;91193.59;;;20.46
43292;BMP280;28754;47.700;7.924;2023-07-29T07:35:28;91203.91;;;20.42
43292;BMP280;28754;47.700;7.924;2023-07-29T07:38:15;91212.63;;;20.38
43292;BMP280;28754;47.700;7.924;2023-07-29T07:41:01;91201.25;;;20.30
43292;BMP280;28754;47.700;7.924;2023-07-29T07:43:48;91200.03;;;20.28
43292;BMP280;28754;47.700;7.924;2023-07-29T07:46:35;91207.59;;;20.21
43292;BMP280;28754;47.700;7.924;2023-07-29T07:49:22;91201.50;;;20.17
43292;BMP280;28754;47.700;7.924;2023-07-29T07:52:09;91200.63;;;20.13
43292;BMP280;28754;47.700;7.924;2023-07-29T07:54:56;91207.31;;;20.14
43292;BMP280;28754;47.700;7.924;2023-07-29T07:57:42;91202.47;;;20.13
43292;BMP280;28754;47.700;7.924;2023-07-29T08:00:29;91203.91;;;20.22
43292;BMP280;28754;47.700;7.924;2023-07-29T08:03:15;91206.06;;;20.40
43292;BMP280;28754;47.700;7.924;2023-07-29T08:06:04;91203.38;;;20.49
43292;BMP280;28754;47.700;7.924;2023-07-29T08:08:51;91198.59;;;20.51
43292;BMP280;28754;47.700;7.924;2023-07-29T08:11:37;91201.66;;;20.53
43292;BMP280;28754;47.700;7.924;2023-07-29T08:14:24;91209.22;;;20.46
43292;BMP280;28754;47.700;7.924;2023-07-29T08:17:11;91214.63;;;20.41
43292;BMP280;28754;47.700;7.924;2023-07-29T08:19:57;91214.41;;;20.46
43292;BMP280;28754;47.700;7.924;2023-07-29T08:22:44;91217.47;;;20.48
43292;BMP280;28754;47.700;7.924;2023-07-29T08:25:31;91194.28;;;20.55
43292;BMP280;28754;47.700;7.924;2023-07-29T08:28:17;91202.38;;;20.62
43292;BMP280;28754;47.700;7.924;2023-07-29T08:31:05;91200.75;;;20.69
43292;BMP280;28754;47.700;7.924;2023-07-29T08:33:52;91208.69;;;20.72
43292;BMP280;28754;47.700;7.924;2023-07-29T08:36:38;91201.41;;;20.98
43292;BMP280;28754;47.700;7.924;2023-07-29T08:39:25;91198.72;;;21.30
43292;BMP280;28754;47.700;7.924;2023-07-29T08:42:12;91197.56;;;21.51
43292;BMP280;28754;47.700;7.924;2023-07-29T08:45:07;91193.97;;;21.68
43292;BMP280;28754;47.700;7.924;2023-07-29T08:47:58;91185.50;;;21.70
43292;BMP280;28754;47.700;7.924;2023-07-29T08:50:46;91200.06;;;21.71
43292;BMP280;28754;47.700;7.924;2023-07-29T08:53:33;91200.19;;;21.75
43292;BMP280;28754;47.700;7.924;2023-07-29T08:56:20;91196.47;;;21.76
43292;BMP280;28754;47.700;7.924;2023-07-29T08:59:40;91201.03;;;21.67
43292;BMP280;28754;47.700;7.924;2023-07-29T09:02:27;91208.66;;;21.60
43292;BMP280;28754;47.700;7.924;2023-07-29T09:05:14;91216.03;;;21.58
43292;BMP280;28754;47.700;7.924;2023-07-29T09:08:02;91203.53;;;21.64
43292;BMP280;28754;47.700;7.924;2023-07-29T09:10:50;91212.88;;;21.65
43292;BMP280;28754;47.700;7.924;2023-07-29T09:13:37;91209.72;;;21.59
43292;BMP280;28754;47.700;7.924;2023-07-29T09:16:24;91212.09;;;21.64
43292;BMP280;28754;47.700;7.924;2023-07-29T09:19:11;91223.84;;;21.70
43292;BMP280;28754;47.700;7.924;2023-07-29T09:21:58;91212.53;;;21.78
43292;BMP280;28754;47.700;7.924;2023-07-29T09:24:46;91218.50;;;21.78
43292;BMP280;28754;47.700;7.924;2023-07-29T09:27:33;91213.09;;;21.71
43292;BMP280;28754;47.700;7.924;2023-07-29T09:30:24;91207.13;;;21.71
43292;BMP280;28754;47.700;7.924;2023-07-29T09:33:11;91224.91;;;21.81
43292;BMP280;28754;47.700;7.924;2023-07-29T09:35:58;91219.66;;;22.04
43292;BMP280;28754;47.700;7.924;2023-07-29T09:38:45;91217.38;;;22.27
43292;BMP280;28754;47.700;7.924;2023-07-29T09:41:32;91223.34;;;22.39
43292;BMP280;28754;47.700;7.924;2023-07-29T09:44:18;91206.78;;;22.47
43292;BMP280;28754;47.700;7.924;2023-07-29T09:47:05;91208.94;;;22.45
43292;BMP280;28754;47.700;7.924;2023-07-29T09:49:53;91217.22;;;22.47
43292;BMP280;28754;47.700;7.924;2023-07-29T09:52:41;91219.94;;;22.38
43292;BMP280;28754;47.700;7.924;2023-07-29T09:55:27;91215.53;;;22.39
43292;BMP280;28754;47.700;7.924;2023-07-29T09:58:19;91224.22;;;22.31
43292;BMP280;28754;47.700;7.924;2023-07-29T10:01:13;91215.28;;;22.32
43292;BMP280;28754;47.700;7.924;2023-07-29T10:04:01;91213.59;;;22.51
43292;BMP280;28754;47.700;7.924;2023-07-29T10:06:48;91209.28;;;22.71
43292;BMP280;28754;47.700;7.924;2023-07-29T10:09:37;91214.47;;;22.82
43292;BMP280;28754;47.700;7.924;2023-07-29T10:12:25;91196.34;;;23.01
43292;BMP280;28754;47.700;7.924;2023-07-29T10:15:13;91196.53;;;23.08
43292;BMP280;28754;47.700;7.924;2023-07-29T10:18:02;91208.16;;;23.10
43292;BMP280;28754;47.700;7.924;2023-07-29T10:20:51;91216.50;;;23.16
43292;BMP280;28754;47.700;7.924;2023-07-29T10:23:47;91195.69;;;23.04
43292;BMP280;28754;47.700;7.924;2023-07-29T10:26:38;91212.25;;;22.96
43292;BMP280;28754;47.700;7.924;2023-07-29T10:29:31;91193.31;;;22.99
43292;BMP280;28754;47.700;7.924;2023-07-29T10:32:25;91200.38;;;22.99
43292;BMP280;28754;47.700;7.924;2023-07-29T10:35:13;91208.28;;;22.87
43292;BMP280;28754;47.700;7.924;2023-07-29T10:38:02;91193.16;;;22.80
43292;BMP280;28754;47.700;7.924;2023-07-29T10:40:55;91208.59;;;22.85
43292;BMP280;28754;47.700;7.924;2023-07-29T10:43:47;91187.25;;;22.83
43292;BMP280;28754;47.700;7.924;2023-07-29T10:46:35;91199.03;;;22.89
43292;BMP280;28754;47.700;7.924;2023-07-29T10:49:23;91193.50;;;23.06
43292;BMP280;28754;47.700;7.924;2023-07-29T10:52:49;91196.00;;;23.18
43292;BMP280;28754;47.700;7.924;2023-07-29T10:55:35;91175.63;;;23.39
43292;BMP280;28754;47.700;7.924;2023-07-29T10:58:23;91157.09;;;23.43
43292;BMP280;28754;47.700;7.924;2023-07-29T11:01:13;91174.44;;;23.51
43292;BMP280;28754;47.700;7.924;2023-07-29T11:10:03;91176.22;;;23.47
43292;BMP280;28754;47.700;7.924;2023-07-29T11:12:53;91178.09;;;23.62
43292;BMP280;28754;47.700;7.924;2023-07-29T11:15:40;91167.78;;;23.69
43292;BMP280;28754;47.700;7.924;2023-07-29T11:18:35;91164.34;;;23.80
43292;BMP280;28754;47.700;7.924;2023-07-29T11:21:25;91157.66;;;23.83
43292;BMP280;28754;47.700;7.924;2023-07-29T11:24:18;91155.06;;;23.83
43292;BMP280;28754;47.700;7.924;2023-07-29T11:27:05;91159.44;;;23.79
43292;BMP280;28754;47.700;7.924;2023-07-29T11:30:01;91157.56;;;23.79
43292;BMP280;28754;47.700;7.924;2023-07-29T11:32:49;91154.63;;;23.81
43292;BMP280;28754;47.700;7.924;2023-07-29T11:35:35;91159.16;;;23.84
43292;BMP280;28754;47.700;7.924;2023-07-29T11:38:22;91149.81;;;23.83
43292;BMP280;28754;47.700;7.924;2023-07-29T11:41:10;91143.66;;;23.76
43292;BMP280;28754;47.700;7.924;2023-07-29T11:43:56;91152.91;;;23.70
43292;BMP280;28754;47.700;7.924;2023-07-29T11:46:44;91155.84;;;23.68
43292;BMP280;28754;47.700;7.924;2023-07-29T11:49:32;91144.97;;;23.66
43292;BMP280;28754;47.700;7.924;2023-07-29T11:52:19;91149.69;;;23.61
43292;BMP280;28754;47.700;7.924;2023-07-29T11:55:07;91140.66;;;23.58
43292;BMP280;28754;47.700;7.924;2023-07-29T11:57:53;91140.91;;;23.53
43292;BMP280;28754;47.700;7.924;2023-07-29T12:00:41;91143.41;;;23.50
43292;BMP280;28754;47.700;7.924;2023-07-29T12:03:28;91144.03;;;23.43
43292;BMP280;28754;47.700;7.924;2023-07-29T12:06:15;91166.38;;;23.41
43292;BMP280;28754;47.700;7.924;2023-07-29T12:09:03;91147.22;;;23.37
43292;BMP280;28754;47.700;7.924;2023-07-29T12:11:49;91148.00;;;23.38
43292;BMP280;28754;47.700;7.924;2023-07-29T12:14:37;91159.53;;;23.37
43292;BMP280;28754;47.700;7.924;2023-07-29T12:17:23;91155.00;;;23.34
43292;BMP280;28754;47.700;7.924;2023-07-29T12:20:11;91163.59;;;23.34
43292;BMP280;28754;47.700;7.924;2023-07-29T12:22:59;91156.59;;;23.38
43292;BMP280;28754;47.700;7.924;2023-07-29T12:26:00;91156.50;;;23.35
43292;BMP280;28754;47.700;7.924;2023-07-29T12:28:47;91167.81;;;23.39
43292;BMP280;28754;47.700;7.924;2023-07-29T12:31:37;91152.66;;;23.44
43292;BMP280;28754;47.700;7.924;2023-07-29T12:34:26;91160.13;;;23.45
43292;BMP280;28754;47.700;7.924;2023-07-29T12:37:14;91164.84;;;23.40
43292;BMP280;28754;47.700;7.924;2023-07-29T12:40:02;91177.66;;;23.30
43292;BMP280;28754;47.700;7.924;2023-07-29T12:42:50;91179.59;;;23.17
43292;BMP280;28754;47.700;7.924;2023-07-29T12:45:38;91181.72;;;23.12
43292;BMP280;28754;47.700;7.924;2023-07-29T12:48:26;91169.06;;;23.14
43292;BMP280;28754;47.700;7.924;2023-07-29T12:51:13;91169.16;;;23.17
43292;BMP280;28754;47.700;7.924;2023-07-29T12:54:00;91187.25;;;23.10
43292;BMP280;28754;47.700;7.924;2023-07-29T12:56:46;91197.44;;;23.00
43292;BMP280;28754;47.700;7.924;2023-07-29T12:59:33;91211.41;;;22.92
43292;BMP280;28754;47.700;7.924;2023-07-29T13:02:20;91213.72;;;22.82
43292;BMP280;28754;47.700;7.924;2023-07-29T13:05:11;91210.91;;;22.75
43292;BMP280;28754;47.700;7.924;2023-07-29T13:07:58;91228.25;;;22.68
43292;BMP280;28754;47.700;7.924;2023-07-29T13:10:45;91224.59;;;22.57
43292;BMP280;28754;47.700;7.924;2023-07-29T13:13:32;91219.06;;;22.46
43292;BMP280;28754;47.700;7.924;2023-07-29T13:16:18;91225.28;;;22.42
43292;BMP280;28754;47.700;7.924;2023-07-29T13:19:05;91225.09;;;22.35
43292;BMP280;28754;47.700;7.924;2023-07-29T13:21:52;91235.41;;;22.32
43292;BMP280;28754;47.700;7.924;2023-07-29T13:24:39;91233.13;;;22.30
43292;BMP280;28754;47.700;7.924;2023-07-29T13:27:25;91229.44;;;22.31
43292;BMP280;28754;47.700;7.924;2023-07-29T13:30:13;91227.91;;;22.30
43292;BMP280;28754;47.700;7.924;2023-07-29T13:32:59;91232.38;;;22.30
43292;BMP280;28754;47.700;7.924;2023-07-29T13:35:46;91230.50;;;22.30
43292;BMP280;28754;47.700;7.924;2023-07-29T13:38:33;91225.66;;;22.29
43292;BMP280;28754;47.700;7.924;2023-07-29T13:41:19;91222.25;;;22.28
43292;BMP280;28754;47.700;7.924;2023-07-29T13:44:06;91227.06;;;22.26
43292;BMP280;28754;47.700;7.924;2023-07-29T13:46:53;91226.97;;;22.23
43292;BMP280;28754;47.700;7.924;2023-07-29T13:49:39;91226.84;;;22.19
43292;BMP280;28754;47.700;7.924;2023-07-29T13:52:26;91217.75;;;22.13
43292;BMP280;28754;47.700;7.924;2023-07-29T13:55:13;91216.00;;;22.05
43292;BMP280;28754;47.700;7.924;2023-07-29T13:57:59;91214.25;;;21.98
43292;BMP280;28754;47.700;7.924;2023-07-29T14:00:46;91231.88;;;21.89
43292;BMP280;28754;47.700;7.924;2023-07-29T14:03:33;91225.34;;;21.83
43292;BMP280;28754;47.700;7.924;2023-07-29T14:06:19;91230.47;;;21.79
43292;BMP280;28754;47.700;7.924;2023-07-29T14:09:06;91239.59;;;21.73
43292;BMP280;28754;47.700;7.924;2023-07-29T14:11:58;91266.63;;;21.69
43292;BMP280;28754;47.700;7.924;2023-07-29T14:15:14;91267.50;;;21.49
43292;BMP280;28754;47.700;7.924;2023-07-29T14:18:04;91263.50;;;21.32
43292;BMP280;28754;47.700;7.924;2023-07-29T14:24:32;91288.78;;;21.19
43292;BMP280;28754;47.700;7.924;2023-07-29T14:27:22;91285.28;;;21.15
43292;BMP280;28754;47.700;7.924;2023-07-29T14:30:09;91271.38;;;21.11
43292;BMP280;28754;47.700;7.924;2023-07-29T14:32:57;91271.81;;;21.13
43292;BMP280;28754;47.700;7.924;2023-07-29T14:35:44;91262.16;;;21.14
43292;BMP280;28754;47.700;7.924;2023-07-29T14:38:31;91269.53;;;21.12
43292;BMP280;28754;47.700;7.924;2023-07-29T14:41:18;91278.69;;;21.18
43292;BMP280;28754;47.700;7.924;2023-07-29T14:44:05;91275.75;;;21.19
43292;BMP280;28754;47.700;7.924;2023-07-29T14:46:51;91276.50;;;21.20
43292;BMP280;28754;47.700;7.924;2023-07-29T14:49:38;91267.59;;;21.21
43292;BMP280;28754;47.700;7.924;2023-07-29T14:52:31;91279.75;;;21.17
43292;BMP280;28754;47.700;7.924;2023-07-29T16:29:50;91220.91;;;21.04
43292;BMP280;28754;47.700;7.924;2023-07-29T16:33:07;91220.16;;;21.03
43292;BMP280;28754;47.700;7.924;2023-07-29T16:36:42;91218.31;;;21.04
43292;BMP280;28754;47.700;7.924;2023-07-29T16:50:00;91217.59;;;21.15
43292;BMP280;28754;47.700;7.924;2023-07-29T16:52:53;91231.81;;;21.18
43292;BMP280;28754;47.700;7.924;2023-07-29T16:55:55;91231.38;;;21.16
43292;BMP280;28754;47.700;7.924;2023-07-29T16:59:09;91232.44;;;21.15
43292;BMP280;28754;47.700;7.924;2023-07-29T17:02:09;91238.94;;;21.09
43292;BMP280;28754;47.700;7.924;2023-07-29T17:05:16;91226.25;;;21.07
43292;BMP280;28754;47.700;7.924;2023-07-29T17:08:08;91223.06;;;21.02
43292;BMP280;28754;47.700;7.924;2023-07-29T17:11:30;91231.31;;;21.04
43292;BMP280;28754;47.700;7.924;2023-07-29T17:15:29;91240.09;;;20.99
43292;BMP280;28754;47.700;7.924;2023-07-29T17:18:27;91218.28;;;20.92
43292;BMP280;28754;47.700;7.924;2023-07-29T17:21:21;91232.38;;;20.91
43292;BMP280;28754;47.700;7.924;2023-07-29T17:24:35;91228.47;;;20.85
43292;BMP280;28754;47.700;7.924;2023-07-29T17:27:58;91238.00;;;20.81
43292;BMP280;28754;47.700;7.924;2023-07-29T17:40:02;91238.03;;;20.61
43292;BMP280;28754;47.700;7.924;2023-07-29T17:43:42;91240.78;;;20.56
43292;BMP280;28754;47.700;7.924;2023-07-29T17:46:44;91240.03;;;20.56
43292;BMP280;28754;47.700;7.924;2023-07-29T17:49:45;91233.63;;;20.53
43292;BMP280;28754;47.700;7.924;2023-07-29T17:52:48;91224.44;;;20.56
43292;BMP280;28754;47.700;7.924;2023-07-29T17:55:55;91224.56;;;20.59
43292;BMP280;28754;47.700;7.924;2023-07-29T17:58:45;91218.00;;;20.62
43292;BMP280;28754;47.700;7.924;2023-07-29T18:01:40;91214.78;;;20.56
43292;BMP280;28754;47.700;7.924;2023-07-29T18:04:45;91237.88;;;20.58
43292;BMP280;28754;47.700;7.924;2023-07-29T18:07:43;91228.75;;;20.52
43292;BMP280;28754;47.700;7.924;2023-07-29T18:10:30;91233.31;;;20.55
43292;BMP280;28754;47.700;7.924;2023-07-29T18:13:17;91231.78;;;20.54
43292;BMP280;28754;47.700;7.924;2023-07-29T18:16:07;91213.16;;;20.52
43292;BMP280;28754;47.700;7.924;2023-07-29T18:18:53;91242.06;;;20.50
43292;BMP280;28754;47.700;7.924;2023-07-29T18:21:46;91239.34;;;20.47
43292;BMP280;28754;47.700;7.924;2023-07-29T18:25:38;91234.16;;;20.47
43292;BMP280;28754;47.700;7.924;2023-07-29T18:43:22;91222.28;;;20.37